Portada
METAR-TAF:

METAR-TAF

Aeropuertos :

Aeropuerto Internacional de la Reina Alia

Amán-Queen Alia, Jordania

latitud: 31-40N, longitud: 035-58E, altitud: 721 m

Observación

El informe se hizo hace 29 minutos, a las 12:00 UTC
Viento 5 kt del sur-sureste
Temperatura 21°C
Humedad 18%
Presión 1015 hPa
Visibilidad: 6000 m

METAR: OJAI 271200Z 16005KT 6000 NSC 21/M04 Q1015 NOSIG

Hora: 14:29 (12:29 UTC)

Pronóstico

El informe se hizo hace 1 hora y 29 minutos, a las 11:00 UTC
Pronóstico válido del 27 a las 12 UTC al 28 a las 18 UTC
Viento 10 kt del este-sureste
Visibilidad: 5000 m
calima
Evolucionando progresivamente
del 28 a las 08 UTC al 28 a las 10 UTC
Viento 10 kt del oeste-noroeste
Escasas nubes a una altura de 3000 ft

TAF: OJAI 271100Z 2712/2818 11010KT 5000 HZ NSC BECMG 2808/2810 30010KT FEW030

Observaciones y pronósticos meteorológicos de más de 4000 aeropuertos (mensajes METAR y TAF).

Los puntos amarillos y rojos representan las estaciones disponibles.

Ponga el ratón en el punto deseado para ver el nombre de la estación.

Haga clic para ver las observaciones y los pronósticos meteorológicos.

Para cambiar el mapa : haga clic en los botones verdes con una cruz de color negro para hacer un zoom, en el botón verde con un guión para alejar o en las flechas verdes para mapas adyacentes.


METAR-TAF: